createdAt,value
2022-11-13T00:00:23.330Z,100.00
2022-11-13T00:03:47.279Z,100.00
2022-11-13T00:07:04.034Z,100.00
2022-11-13T00:10:28.403Z,100.00
2022-11-13T00:13:52.118Z,100.00
2022-11-13T00:17:16.611Z,100.00
2022-11-13T00:20:40.792Z,99.90
2022-11-13T00:24:04.515Z,99.24
2022-11-13T00:27:28.678Z,97.56
2022-11-13T00:30:52.022Z,97.68
2022-11-13T00:37:42.807Z,100.00
2022-11-13T00:41:06.515Z,100.00
2022-11-13T00:44:30.107Z,100.00
2022-11-13T00:47:47.656Z,100.00
2022-11-13T00:50:58.024Z,100.00
2022-11-13T00:54:20.971Z,100.00
2022-11-13T00:57:44.885Z,100.00
2022-11-13T01:01:08.644Z,100.00
2022-11-13T01:04:35.239Z,100.00
2022-11-13T01:07:52.582Z,100.00
2022-11-13T01:11:26.609Z,100.00
2022-11-13T01:14:50.196Z,100.00
2022-11-13T01:18:13.788Z,100.00
2022-11-13T01:21:40.292Z,100.00
2022-11-13T01:25:04.305Z,100.00
2022-11-13T01:28:28.870Z,99.87
2022-11-13T01:31:53.041Z,99.05
2022-11-13T01:35:16.126Z,98.32
2022-11-13T01:38:39.801Z,98.68
2022-11-13T01:42:04.195Z,98.10
2022-11-13T01:46:15.696Z,97.93
2022-11-13T01:49:51.251Z,98.43
2022-11-13T01:53:15.081Z,99.48
2022-11-13T01:56:38.720Z,99.39
2022-11-13T02:00:06.404Z,99.86
2022-11-13T02:03:30.503Z,100.00
2022-11-13T02:07:12.027Z,100.00
2022-11-13T02:10:36.117Z,99.53
2022-11-13T02:14:00.391Z,99.28
2022-11-13T02:17:32.091Z,99.38
2022-11-13T02:21:35.948Z,100.00
2022-11-13T02:25:00.593Z,100.00
2022-11-13T02:28:25.988Z,100.00
2022-11-13T02:31:48.832Z,100.00
2022-11-13T02:35:12.116Z,100.00
2022-11-13T02:38:35.165Z,100.00
2022-11-13T02:41:58.939Z,100.00
2022-11-13T02:45:24.133Z,100.00
2022-11-13T02:48:46.922Z,99.17
2022-11-13T02:52:10.670Z,99.06
2022-11-13T02:55:35.161Z,99.37
2022-11-13T02:58:59.155Z,100.00
2022-11-13T03:02:23.899Z,100.00
2022-11-13T03:05:48.599Z,100.00
2022-11-13T03:09:12.302Z,100.00
2022-11-13T03:12:36.083Z,100.00
2022-11-13T03:16:00.202Z,100.00
2022-11-13T03:19:23.794Z,100.00
2022-11-13T03:22:47.619Z,100.00
2022-11-13T03:26:11.291Z,100.00
2022-11-13T03:29:35.079Z,99.79
2022-11-13T03:32:59.236Z,99.78
2022-11-13T03:36:23.127Z,100.00
2022-11-13T03:39:32.902Z,99.98
2022-11-13T03:42:51.166Z,98.27
2022-11-13T03:46:15.105Z,97.76
2022-11-13T03:49:39.615Z,97.79
2022-11-13T03:53:04.010Z,97.97
2022-11-13T03:56:27.605Z,97.91
2022-11-13T03:59:50.119Z,97.75
2022-11-13T04:03:15.208Z,96.72
2022-11-13T04:06:38.535Z,97.00
2022-11-13T04:10:02.735Z,96.08
2022-11-13T04:13:26.138Z,96.01
2022-11-13T04:16:50.357Z,95.29
2022-11-13T04:20:14.188Z,95.34
2022-11-13T04:23:38.678Z,97.44
2022-11-13T04:27:02.048Z,97.28
2022-11-13T04:30:20.190Z,96.46
2022-11-13T04:33:42.648Z,96.29
2022-11-13T04:37:06.964Z,95.82
2022-11-13T04:40:30.305Z,95.14
2022-11-13T04:43:54.667Z,94.76
2022-11-13T04:47:19.400Z,94.70
2022-11-13T04:50:43.014Z,94.66
2022-11-13T04:54:06.046Z,94.74
2022-11-13T04:57:30.979Z,94.81
2022-11-13T05:00:55.291Z,94.90
2022-11-13T05:04:17.783Z,96.02
2022-11-13T05:07:42.011Z,95.27
2022-11-13T05:11:05.276Z,96.40
2022-11-13T05:14:21.471Z,97.05
2022-11-13T05:17:24.865Z,97.19
2022-11-13T05:20:49.322Z,97.24
2022-11-13T05:24:12.582Z,97.08
2022-11-13T05:27:36.811Z,97.30
2022-11-13T05:31:01.228Z,96.74
2022-11-13T05:34:18.091Z,96.15
2022-11-13T05:37:22.080Z,95.66
2022-11-13T05:40:32.086Z,94.86
2022-11-13T05:43:36.064Z,93.98
2022-11-13T05:46:47.291Z,94.45
2022-11-13T05:49:51.307Z,94.50
2022-11-13T05:53:02.331Z,95.40
2022-11-13T05:56:24.500Z,93.99
2022-11-13T05:59:47.883Z,93.42
2022-11-13T06:03:10.592Z,93.60
2022-11-13T06:06:34.696Z,93.02
2022-11-13T06:09:57.502Z,92.40
2022-11-13T06:13:21.264Z,92.07
2022-11-13T06:16:51.260Z,95.44
2022-11-13T06:20:15.034Z,96.97
2022-11-13T06:23:39.021Z,97.95
2022-11-13T06:27:02.130Z,97.76
2022-11-13T06:30:26.452Z,97.53
2022-11-13T06:33:49.919Z,96.05
2022-11-13T06:37:14.401Z,94.03
2022-11-13T06:40:38.406Z,94.91
2022-11-13T06:44:03.264Z,95.42
2022-11-13T06:47:20.825Z,95.37
2022-11-13T06:50:31.783Z,96.04
2022-11-13T06:53:55.672Z,94.87
2022-11-13T06:57:19.701Z,94.15
2022-11-13T07:00:44.060Z,93.81
2022-11-13T07:04:07.561Z,93.97
2022-11-13T07:07:30.486Z,94.50
2022-11-13T07:10:54.350Z,93.86
2022-11-13T07:14:19.669Z,94.15
2022-11-13T07:17:43.960Z,93.84
2022-11-13T07:21:08.305Z,94.10
2022-11-13T07:24:31.689Z,94.44
2022-11-13T07:28:00.677Z,93.60
2022-11-13T07:31:24.529Z,91.56
2022-11-13T07:34:41.319Z,91.05
2022-11-13T07:37:59.053Z,92.12
2022-11-13T07:41:22.602Z,91.20
2022-11-13T07:44:54.685Z,91.87
2022-11-13T07:48:16.264Z,91.43
2022-11-13T07:51:39.562Z,91.23
2022-11-13T07:55:04.237Z,90.97
2022-11-13T07:58:27.641Z,90.31
2022-11-13T08:01:52.091Z,89.89
2022-11-13T08:05:14.691Z,89.04
2022-11-13T08:08:38.077Z,88.86
2022-11-13T08:12:01.209Z,88.53
2022-11-13T08:15:26.052Z,88.38
2022-11-13T08:18:50.012Z,88.43
2022-11-13T08:22:13.783Z,88.09
2022-11-13T08:25:39.482Z,87.74
2022-11-13T08:29:04.162Z,87.89
2022-11-13T08:32:33.571Z,87.93
2022-11-13T08:35:56.476Z,88.06
2022-11-13T08:39:20.065Z,88.21
2022-11-13T08:42:36.593Z,87.84
2022-11-13T08:46:02.434Z,87.33
2022-11-13T08:49:25.396Z,87.21
2022-11-13T08:52:48.009Z,87.21
2022-11-13T08:56:12.399Z,86.25
2022-11-13T08:59:36.642Z,85.79
2022-11-13T09:02:59.841Z,84.87
2022-11-13T09:06:24.079Z,84.21
2022-11-13T09:09:48.739Z,83.06
2022-11-13T09:13:16.905Z,83.67
2022-11-13T09:16:41.126Z,83.42
2022-11-13T09:20:06.078Z,83.83
2022-11-13T09:23:29.167Z,86.64
2022-11-13T09:26:53.301Z,84.83
2022-11-13T09:30:17.126Z,84.76
2022-11-13T09:33:41.467Z,84.20
2022-11-13T09:37:05.548Z,84.81
2022-11-13T09:40:33.426Z,83.61
2022-11-13T09:44:10.747Z,83.46
2022-11-13T09:47:59.230Z,83.00
2022-11-13T09:51:29.563Z,81.17
2022-11-13T09:54:53.773Z,81.29
2022-11-13T09:58:30.878Z,80.04
2022-11-13T10:02:34.222Z,78.51
2022-11-13T10:06:17.001Z,78.61
2022-11-13T10:09:52.228Z,79.30
2022-11-13T10:13:11.471Z,78.73
2022-11-13T10:16:56.276Z,77.02
2022-11-13T10:20:30.021Z,76.67
2022-11-13T10:23:54.206Z,76.50
2022-11-13T10:27:20.832Z,75.71
2022-11-13T10:30:44.303Z,73.35
2022-11-13T10:34:09.055Z,72.97
2022-11-13T10:38:07.538Z,73.17
2022-11-13T10:41:29.000Z,72.28
2022-11-13T10:44:53.113Z,72.51
2022-11-13T10:48:16.635Z,72.04
2022-11-13T10:51:45.734Z,72.78
2022-11-13T10:55:46.380Z,71.27
2022-11-13T10:59:30.200Z,70.16
2022-11-13T11:02:53.549Z,69.46
2022-11-13T11:06:19.434Z,70.33
2022-11-13T11:09:46.495Z,70.65
2022-11-13T11:13:14.494Z,70.73
2022-11-13T11:16:38.876Z,70.08
2022-11-13T11:20:10.200Z,69.55
2022-11-13T11:24:08.567Z,70.02
2022-11-13T11:27:47.351Z,70.43
2022-11-13T11:31:33.697Z,70.28
2022-11-13T11:35:18.145Z,69.86
2022-11-13T11:38:54.763Z,70.04
2022-11-13T11:42:25.669Z,71.14
2022-11-13T11:45:45.217Z,71.29
2022-11-13T11:48:55.326Z,71.42
2022-11-13T11:52:34.777Z,71.69
2022-11-13T11:56:27.428Z,72.11
2022-11-13T12:00:26.735Z,72.36
2022-11-13T12:04:20.725Z,72.82
2022-11-13T12:08:16.573Z,73.21
2022-11-13T12:11:52.620Z,73.06
2022-11-13T12:15:26.607Z,72.85
2022-11-13T12:18:51.433Z,72.74
2022-11-13T12:22:38.907Z,73.09
2022-11-13T12:26:22.946Z,72.93
2022-11-13T12:30:20.276Z,73.42
2022-11-13T12:34:01.475Z,73.15
2022-11-13T12:37:26.026Z,73.26
2022-11-13T12:40:48.841Z,72.66
2022-11-13T12:44:16.725Z,72.69
2022-11-13T12:47:40.689Z,72.79
2022-11-13T12:51:24.232Z,73.72
2022-11-13T12:54:50.812Z,73.88
2022-11-13T12:58:41.013Z,73.91
2022-11-13T13:02:27.311Z,73.63
2022-11-13T13:06:21.195Z,74.10
2022-11-13T13:10:18.264Z,73.66
2022-11-13T13:13:52.432Z,73.49
2022-11-13T13:17:34.320Z,73.53
2022-11-13T13:21:15.464Z,73.73
2022-11-13T13:24:49.211Z,73.75
2022-11-13T13:28:26.834Z,73.70
2022-11-13T13:31:55.729Z,73.94
2022-11-13T13:35:33.859Z,73.91
2022-11-13T13:39:12.201Z,74.23
2022-11-13T13:42:48.374Z,75.07
2022-11-13T13:46:33.545Z,75.22
2022-11-13T13:49:57.898Z,75.37
2022-11-13T13:53:20.835Z,75.57
2022-11-13T13:56:44.466Z,76.20
2022-11-13T14:00:08.361Z,76.42
2022-11-13T14:03:29.834Z,76.55
2022-11-13T14:06:33.552Z,76.32
2022-11-13T14:09:43.517Z,75.90
2022-11-13T14:13:07.779Z,76.73
2022-11-13T14:16:30.497Z,76.55
2022-11-13T14:19:54.649Z,76.77
2022-11-13T14:23:19.118Z,77.11
2022-11-13T14:26:42.208Z,76.90
2022-11-13T14:30:08.380Z,77.66
2022-11-13T14:33:34.716Z,78.21
2022-11-13T14:37:00.272Z,77.65
2022-11-13T14:40:44.267Z,77.48
2022-11-13T14:44:08.398Z,77.16
2022-11-13T14:47:43.756Z,77.52
2022-11-13T14:51:15.170Z,77.64
2022-11-13T14:55:18.853Z,77.65
2022-11-13T14:58:14.754Z,78.63
2022-11-13T15:01:40.635Z,80.42
2022-11-13T15:05:04.335Z,80.37
2022-11-13T15:08:21.613Z,79.84
2022-11-13T15:11:47.687Z,80.27
2022-11-13T15:15:11.432Z,80.21
2022-11-13T15:18:36.711Z,79.98
2022-11-13T15:22:31.806Z,79.91
2022-11-13T15:25:34.913Z,79.71
2022-11-13T15:28:59.185Z,79.37
2022-11-13T15:32:20.842Z,79.57
2022-11-13T15:35:25.558Z,79.52
2022-11-13T15:38:35.541Z,79.92
2022-11-13T15:41:45.126Z,80.12
2022-11-13T15:45:03.207Z,80.33
2022-11-13T15:48:26.174Z,80.46
2022-11-13T15:51:50.571Z,81.24
2022-11-13T15:55:01.967Z,80.82
2022-11-13T15:58:33.510Z,81.64
2022-11-13T16:01:58.079Z,82.54
2022-11-13T16:05:15.786Z,83.30
2022-11-13T16:08:29.497Z,84.02
2022-11-13T16:11:53.110Z,84.28
2022-11-13T16:15:16.867Z,83.96
2022-11-13T16:18:42.751Z,84.79
2022-11-13T16:22:06.024Z,84.55
2022-11-13T16:25:33.216Z,84.00
2022-11-13T16:29:13.236Z,85.40
2022-11-13T16:32:29.305Z,85.34
2022-11-13T16:35:53.748Z,85.71
2022-11-13T16:39:18.633Z,85.57
2022-11-13T16:42:41.968Z,85.92
2022-11-13T16:46:06.086Z,87.50
2022-11-13T16:49:30.074Z,87.70
2022-11-13T16:52:53.994Z,87.46
2022-11-13T16:56:26.426Z,86.99
2022-11-13T16:59:50.700Z,86.93
2022-11-13T17:03:13.408Z,87.35
2022-11-13T17:06:47.651Z,86.59
2022-11-13T17:10:30.269Z,86.22
2022-11-13T17:13:36.512Z,87.10
2022-11-13T17:17:02.512Z,86.25
2022-11-13T17:20:20.185Z,85.82
2022-11-13T17:23:31.041Z,85.89
2022-11-13T17:26:55.709Z,86.14
2022-11-13T17:30:21.159Z,86.03
2022-11-13T17:33:39.818Z,86.45
2022-11-13T17:37:04.831Z,86.41
2022-11-13T17:40:28.712Z,87.03
2022-11-13T17:43:59.879Z,86.71
2022-11-13T17:47:19.475Z,86.86
2022-11-13T17:50:43.430Z,86.90
2022-11-13T17:54:07.564Z,86.79
2022-11-13T17:57:30.431Z,86.51
2022-11-13T18:00:55.274Z,86.54
2022-11-13T18:04:19.202Z,86.51
2022-11-13T18:07:43.210Z,86.80
2022-11-13T18:11:07.330Z,86.91
2022-11-13T18:14:26.019Z,87.64
2022-11-13T18:17:44.218Z,87.45
2022-11-13T18:21:13.907Z,87.41
2022-11-13T18:24:31.541Z,87.37
2022-11-13T18:27:55.346Z,87.32
2022-11-13T18:31:25.340Z,87.04
2022-11-13T18:34:47.963Z,86.74
2022-11-13T18:38:12.155Z,86.84
2022-11-13T18:41:37.639Z,86.77
2022-11-13T18:45:05.715Z,86.34
2022-11-13T18:48:25.896Z,86.24
2022-11-13T18:51:49.174Z,86.11
2022-11-13T18:55:11.344Z,86.59
2022-11-13T18:58:33.752Z,85.89
2022-11-13T19:01:58.118Z,86.31
2022-11-13T19:05:23.513Z,87.26
2022-11-13T19:08:40.902Z,87.88
2022-11-13T19:11:46.021Z,87.80
2022-11-13T19:14:57.631Z,87.80
2022-11-13T19:18:15.189Z,87.92
2022-11-13T19:21:35.559Z,87.78
2022-11-13T19:24:58.871Z,87.27
2022-11-13T19:28:22.130Z,86.84
2022-11-13T19:31:47.030Z,86.84
2022-11-13T19:35:10.346Z,87.21
2022-11-13T19:38:35.238Z,87.19
2022-11-13T19:41:59.620Z,87.11
2022-11-13T19:45:23.392Z,86.95
2022-11-13T19:48:47.512Z,87.83
2022-11-13T19:52:11.734Z,87.75
2022-11-13T19:55:35.545Z,88.26
2022-11-13T19:59:00.093Z,88.38
2022-11-13T20:02:18.785Z,87.99
2022-11-13T20:05:41.099Z,88.03
2022-11-13T20:09:04.728Z,88.02
2022-11-13T20:12:30.089Z,88.37
2022-11-13T20:15:54.500Z,88.93
2022-11-13T20:19:19.264Z,90.13
2022-11-13T20:22:43.731Z,89.36
2022-11-13T20:26:12.956Z,88.60
2022-11-13T20:29:38.781Z,88.54
2022-11-13T20:32:54.927Z,88.39
2022-11-13T20:36:18.424Z,88.42
2022-11-13T20:39:45.639Z,88.20
2022-11-13T20:43:03.339Z,88.04
2022-11-13T20:46:29.515Z,87.46
2022-11-13T20:49:52.101Z,87.81
2022-11-13T20:53:16.226Z,89.13
2022-11-13T20:56:40.549Z,89.59
2022-11-13T21:00:05.757Z,89.75
2022-11-13T21:03:29.049Z,89.61
2022-11-13T21:06:54.101Z,89.71
2022-11-13T21:10:17.437Z,90.27
2022-11-13T21:13:42.119Z,89.88
2022-11-13T21:17:05.745Z,89.65
2022-11-13T21:20:29.214Z,89.46
2022-11-13T21:23:53.008Z,89.36
2022-11-13T21:27:16.432Z,89.87
2022-11-13T21:30:34.089Z,89.81
2022-11-13T21:33:59.533Z,90.19
2022-11-13T21:37:22.964Z,90.08
2022-11-13T21:40:47.117Z,90.47
2022-11-13T21:44:17.676Z,90.82
2022-11-13T21:47:41.946Z,90.72
2022-11-13T21:51:05.720Z,90.39
2022-11-13T21:54:30.091Z,90.22
2022-11-13T21:57:56.496Z,90.27
2022-11-13T22:01:20.310Z,90.40
2022-11-13T22:04:44.802Z,90.08
2022-11-13T22:08:09.143Z,89.59
2022-11-13T22:11:32.576Z,89.55
2022-11-13T22:14:49.970Z,89.30
2022-11-13T22:18:13.125Z,88.75
2022-11-13T22:21:38.303Z,88.61
2022-11-13T22:24:55.433Z,89.13
2022-11-13T22:28:11.819Z,89.54
2022-11-13T22:31:41.458Z,89.48
2022-11-13T22:35:04.363Z,89.24
2022-11-13T22:38:28.475Z,89.59
2022-11-13T22:41:52.789Z,90.63
2022-11-13T22:45:23.556Z,90.55
2022-11-13T22:48:42.058Z,90.18
2022-11-13T22:52:06.745Z,90.05
2022-11-13T22:55:29.912Z,90.12
2022-11-13T22:58:53.214Z,90.02
2022-11-13T23:02:16.242Z,90.22
2022-11-13T23:05:39.355Z,90.74
2022-11-13T23:09:03.160Z,91.07
2022-11-13T23:12:29.432Z,91.05
2022-11-13T23:15:53.161Z,91.15
2022-11-13T23:19:17.510Z,90.92
2022-11-13T23:22:41.369Z,90.79
2022-11-13T23:26:05.588Z,90.70
2022-11-13T23:29:29.050Z,90.99
2022-11-13T23:32:46.321Z,91.97
2022-11-13T23:36:10.565Z,92.32
2022-11-13T23:39:34.191Z,92.32
2022-11-13T23:42:59.032Z,92.23
2022-11-13T23:46:23.422Z,92.41
2022-11-13T23:49:47.449Z,92.03
2022-11-13T23:53:11.345Z,92.04
2022-11-13T23:56:36.016Z,91.82
